createdAt,value
2018-01-12T00:01:20.403Z,24.30
2018-01-12T00:03:48.166Z,24.30
2018-01-12T00:06:16.030Z,24.30
2018-01-12T00:08:44.844Z,24.30
2018-01-12T00:11:12.580Z,24.30
2018-01-12T00:13:40.445Z,24.30
2018-01-12T00:16:08.311Z,24.40
2018-01-12T00:18:37.100Z,24.40
2018-01-12T00:21:04.689Z,24.40
2018-01-12T00:23:32.418Z,24.40
2018-01-12T00:26:00.181Z,24.40
2018-01-12T00:28:27.827Z,24.40
2018-01-12T00:30:56.629Z,24.40
2018-01-12T00:33:24.494Z,24.40
2018-01-12T00:35:53.387Z,24.50
2018-01-12T00:38:21.249Z,24.50
2018-01-12T00:40:50.175Z,24.50
2018-01-12T00:43:19.288Z,24.50
2018-01-12T00:45:47.815Z,24.50
2018-01-12T00:48:16.704Z,24.50
2018-01-12T00:50:44.229Z,24.50
2018-01-12T00:53:12.941Z,24.60
2018-01-12T00:55:40.469Z,24.60
2018-01-12T00:58:08.748Z,24.60
2018-01-12T01:00:37.000Z,24.60
2018-01-12T01:03:05.272Z,24.60
2018-01-12T01:05:34.264Z,24.50
2018-01-12T01:08:03.262Z,24.60
2018-01-12T01:10:32.712Z,24.60
2018-01-12T01:13:00.209Z,24.60
2018-01-12T01:15:27.716Z,24.60
2018-01-12T01:17:55.229Z,24.60
2018-01-12T01:20:23.485Z,24.60
2018-01-12T01:22:50.980Z,24.60
2018-01-12T01:25:19.258Z,24.60
2018-01-12T01:27:47.508Z,24.60
2018-01-12T01:30:17.756Z,24.60
2018-01-12T01:32:46.009Z,24.60
2018-01-12T01:35:13.518Z,24.60
2018-01-12T01:37:41.005Z,24.60
2018-01-12T01:40:08.512Z,24.60
2018-01-12T01:42:36.768Z,24.60
2018-01-12T01:45:05.050Z,24.60
2018-01-12T01:47:33.309Z,24.60
2018-01-12T01:50:00.825Z,24.60
2018-01-12T01:52:28.332Z,24.60
2018-01-12T01:54:55.821Z,24.60
2018-01-12T01:57:23.333Z,24.60
2018-01-12T01:59:50.819Z,24.60
2018-01-12T02:02:19.097Z,24.60
2018-01-12T02:04:47.354Z,24.60
2018-01-12T02:07:15.633Z,24.60
2018-01-12T02:09:43.886Z,24.60
2018-01-12T02:12:12.168Z,24.60
2018-01-12T02:14:39.661Z,24.60
2018-01-12T02:17:08.100Z,24.60
2018-01-12T02:19:35.610Z,24.60
2018-01-12T02:22:03.104Z,24.60
2018-01-12T02:24:30.608Z,24.60
2018-01-12T02:26:58.105Z,24.60
2018-01-12T02:29:25.613Z,24.50
2018-01-12T02:31:53.110Z,24.50
2018-01-12T02:34:20.610Z,24.50
2018-01-12T02:36:48.934Z,24.50
2018-01-12T02:39:16.405Z,24.50
2018-01-12T02:41:43.923Z,24.50
2018-01-12T02:44:11.421Z,24.50
2018-01-12T02:46:38.934Z,24.50
2018-01-12T02:49:06.425Z,24.50
2018-01-12T02:51:33.933Z,24.50
2018-01-12T02:54:02.189Z,24.40
2018-01-12T02:56:31.645Z,24.50
2018-01-12T02:58:59.136Z,24.50
2018-01-12T03:01:26.653Z,24.50
2018-01-12T03:03:54.145Z,24.50
2018-01-12T03:06:21.652Z,24.50
2018-01-12T03:08:49.140Z,24.50
2018-01-12T03:11:16.660Z,24.40
2018-01-12T03:13:44.916Z,24.40
2018-01-12T03:16:13.336Z,24.40
2018-01-12T03:18:40.844Z,24.40
2018-01-12T03:21:08.338Z,24.40
2018-01-12T03:23:35.848Z,24.40
2018-01-12T03:26:04.100Z,24.40
2018-01-12T03:28:32.521Z,24.40
2018-01-12T03:31:00.777Z,24.40
2018-01-12T03:33:29.053Z,24.40
2018-01-12T03:35:56.540Z,24.40
2018-01-12T03:38:24.792Z,24.40
2018-01-12T03:40:53.064Z,24.40
2018-01-12T03:43:20.560Z,24.40
2018-01-12T03:45:48.073Z,24.40
2018-01-12T03:48:16.350Z,24.40
2018-01-12T03:50:43.860Z,24.40
2018-01-12T03:53:11.352Z,24.40
2018-01-12T03:55:38.872Z,24.40
2018-01-12T03:58:06.360Z,24.40
2018-01-12T04:00:33.853Z,24.40
2018-01-12T04:03:02.124Z,24.40
2018-01-12T04:05:30.380Z,24.40
2018-01-12T04:07:59.844Z,24.40
2018-01-12T04:10:27.335Z,24.40
2018-01-12T04:12:54.853Z,24.40
2018-01-12T04:15:22.345Z,24.40
2018-01-12T04:17:50.801Z,24.40
2018-01-12T04:20:18.288Z,24.40
2018-01-12T04:22:46.564Z,24.40
2018-01-12T04:25:14.057Z,24.40
2018-01-12T04:27:42.312Z,24.40
2018-01-12T04:30:10.603Z,24.40
2018-01-12T04:32:38.861Z,24.40
2018-01-12T04:35:07.145Z,24.40
2018-01-12T04:37:35.397Z,24.40
2018-01-12T04:40:02.910Z,24.40
2018-01-12T04:42:30.402Z,24.40
2018-01-12T04:44:57.915Z,24.40
2018-01-12T04:47:25.409Z,24.40
2018-01-12T04:49:52.924Z,24.40
2018-01-12T04:52:20.415Z,24.40
2018-01-12T04:54:47.909Z,24.40
2018-01-12T04:57:16.203Z,24.40
2018-01-12T04:59:44.641Z,24.40
2018-01-12T05:02:12.149Z,24.40
2018-01-12T05:04:39.637Z,24.40
2018-01-12T05:07:07.154Z,24.40
2018-01-12T05:09:34.654Z,24.40
2018-01-12T05:12:02.185Z,24.40
2018-01-12T05:14:30.641Z,24.40
2018-01-12T05:16:58.925Z,24.40
2018-01-12T05:19:26.418Z,24.40
2018-01-12T05:21:53.906Z,24.40
2018-01-12T05:24:21.428Z,24.40
2018-01-12T05:26:48.917Z,24.40
2018-01-12T05:29:16.438Z,24.40
2018-01-12T05:31:43.938Z,24.40
2018-01-12T05:34:11.457Z,24.40
2018-01-12T05:36:39.904Z,24.40
2018-01-12T05:39:07.416Z,24.40
2018-01-12T05:41:36.416Z,24.30
2018-01-12T05:44:03.909Z,24.30
2018-01-12T05:46:31.416Z,24.40
2018-01-12T05:48:58.901Z,24.30
2018-01-12T05:51:27.186Z,24.30
2018-01-12T05:53:55.444Z,24.30
2018-01-12T05:56:22.957Z,24.30
2018-01-12T05:58:50.449Z,24.30
2018-01-12T06:01:29.830Z,24.30
2018-01-12T06:04:09.317Z,24.30
2018-01-12T06:06:36.838Z,24.30
2018-01-12T06:09:04.332Z,24.30
2018-01-12T06:11:33.800Z,24.30
2018-01-12T06:14:01.288Z,24.30
2018-01-12T06:16:32.284Z,24.30
2018-01-12T06:18:59.804Z,24.30
2018-01-12T06:21:28.060Z,24.30
2018-01-12T06:23:56.533Z,24.30
2018-01-12T06:26:24.029Z,24.30
2018-01-12T06:28:53.272Z,24.30
2018-01-12T06:31:20.763Z,24.30
2018-01-12T06:33:49.040Z,24.30
2018-01-12T06:36:16.534Z,24.30
2018-01-12T06:38:44.045Z,24.30
2018-01-12T06:41:11.538Z,24.30
2018-01-12T06:43:39.040Z,24.30
2018-01-12T06:46:08.511Z,24.30
2018-01-12T06:48:37.040Z,24.20
2018-01-12T06:51:06.060Z,24.20
2018-01-12T06:53:34.336Z,24.30
2018-01-12T06:56:03.047Z,24.30
2018-01-12T06:58:30.835Z,24.20
2018-01-12T07:00:58.382Z,24.20
2018-01-12T07:03:26.124Z,24.20
2018-01-12T07:05:53.706Z,24.20
2018-01-12T07:08:21.584Z,24.20
2018-01-12T07:10:50.389Z,24.20
2018-01-12T07:13:18.923Z,24.20
2018-01-12T07:15:46.787Z,24.20
2018-01-12T07:18:15.574Z,24.20
2018-01-12T07:20:55.240Z,24.20
2018-01-12T07:23:34.900Z,24.20
2018-01-12T07:26:02.658Z,24.20
2018-01-12T07:28:30.485Z,24.20
2018-01-12T07:30:58.248Z,24.20
2018-01-12T07:33:26.113Z,24.20
2018-01-12T07:35:53.978Z,24.20
2018-01-12T07:38:21.525Z,24.20
2018-01-12T07:40:49.027Z,24.20
2018-01-12T07:43:16.560Z,24.20
2018-01-12T07:45:44.057Z,24.20
2018-01-12T07:48:11.588Z,24.20
2018-01-12T07:50:39.085Z,24.20
2018-01-12T07:53:13.173Z,24.20
2018-01-12T07:55:40.672Z,24.20
2018-01-12T07:58:08.193Z,24.20
2018-01-12T08:00:42.248Z,24.20
2018-01-12T08:03:09.748Z,24.20
2018-01-12T08:05:37.260Z,24.20
2018-01-12T08:08:04.776Z,24.20
2018-01-12T08:10:32.292Z,24.20
2018-01-12T08:12:59.800Z,24.20
2018-01-12T08:15:27.352Z,24.20
2018-01-12T08:17:54.880Z,24.10
2018-01-12T08:20:22.380Z,24.20
2018-01-12T08:22:52.612Z,24.10
2018-01-12T08:25:20.898Z,24.10
2018-01-12T08:27:48.425Z,24.10
2018-01-12T08:30:15.923Z,24.10
2018-01-12T08:32:43.461Z,24.10
2018-01-12T08:35:12.660Z,24.10
2018-01-12T08:37:40.175Z,24.10
2018-01-12T08:40:08.444Z,24.10
2018-01-12T08:42:37.903Z,24.10
2018-01-12T08:45:05.424Z,24.10
2018-01-12T08:47:33.029Z,24.10
2018-01-12T08:50:00.526Z,24.10
2018-01-12T08:52:28.965Z,24.10
2018-01-12T08:54:56.480Z,24.10
2018-01-12T08:57:23.977Z,24.10
2018-01-12T08:59:51.512Z,24.10
2018-01-12T09:02:19.764Z,24.10
2018-01-12T09:04:47.277Z,24.10
2018-01-12T09:07:15.716Z,24.10
2018-01-12T09:09:43.977Z,24.10
2018-01-12T09:12:11.492Z,24.10
2018-01-12T09:14:49.866Z,24.10
2018-01-12T09:17:29.209Z,24.10
2018-01-12T09:22:55.785Z,24.00
2018-01-12T09:25:26.616Z,24.00
2018-01-12T09:27:54.133Z,24.00
2018-01-12T09:30:22.392Z,24.00
2018-01-12T09:32:49.911Z,24.00
2018-01-12T09:35:17.422Z,24.00
2018-01-12T09:37:45.729Z,24.00
2018-01-12T09:40:28.008Z,24.00
2018-01-12T09:42:56.297Z,24.00
2018-01-12T09:45:23.792Z,24.00
2018-01-12T09:48:03.361Z,24.00
2018-01-12T09:50:31.812Z,24.00
2018-01-12T09:52:59.304Z,24.00
2018-01-12T09:55:26.817Z,24.00
2018-01-12T09:57:54.309Z,24.00
2018-01-12T10:03:27.103Z,24.00
2018-01-12T10:05:54.618Z,24.00
2018-01-12T10:08:25.841Z,24.00
2018-01-12T10:10:53.352Z,24.00
2018-01-12T10:13:20.844Z,24.00
2018-01-12T10:15:51.120Z,24.00
2018-01-12T10:18:40.457Z,24.00
2018-01-12T10:21:19.802Z,24.00
2018-01-12T10:23:47.296Z,24.00
2018-01-12T10:26:16.769Z,23.90
2018-01-12T10:28:56.176Z,23.90
2018-01-12T10:31:35.725Z,23.90
2018-01-12T10:34:08.120Z,23.90
2018-01-12T10:36:36.591Z,23.90
2018-01-12T10:39:04.081Z,23.90
2018-01-12T10:41:43.444Z,23.90
2018-01-12T10:44:12.631Z,23.90
2018-01-12T10:46:45.957Z,23.90
2018-01-12T10:49:25.448Z,23.90
2018-01-12T10:52:09.343Z,23.90
2018-01-12T10:54:36.848Z,23.90
2018-01-12T10:57:06.304Z,23.90
2018-01-12T10:59:34.775Z,23.90
2018-01-12T11:02:02.336Z,23.90
2018-01-12T11:04:30.744Z,23.90
2018-01-12T11:06:58.232Z,23.90
2018-01-12T11:09:25.745Z,23.90
2018-01-12T11:11:53.249Z,23.90
2018-01-12T11:14:21.533Z,23.90
2018-01-12T11:16:49.785Z,23.80
2018-01-12T11:19:18.065Z,23.80
2018-01-12T11:21:45.552Z,23.80
2018-01-12T11:24:13.113Z,23.80
2018-01-12T11:26:41.577Z,23.80
2018-01-12T11:29:09.832Z,23.80
2018-01-12T11:31:37.345Z,23.80
2018-01-12T11:34:05.781Z,23.80
2018-01-12T11:36:34.065Z,23.80
2018-01-12T11:39:02.327Z,23.80
2018-01-12T11:41:29.840Z,23.80
2018-01-12T11:43:57.326Z,23.80
2018-01-12T11:46:26.572Z,23.80
2018-01-12T11:48:54.063Z,23.80
2018-01-12T11:51:21.552Z,23.80
2018-01-12T11:53:51.824Z,23.80
2018-01-12T11:56:19.318Z,23.80
2018-01-12T11:58:46.832Z,23.80
2018-01-12T12:01:14.316Z,23.80
2018-01-12T12:03:41.849Z,23.80
2018-01-12T12:06:09.341Z,23.80
2018-01-12T12:08:37.619Z,23.80
2018-01-12T12:11:05.108Z,23.80
2018-01-12T12:13:33.403Z,23.80
2018-01-12T12:16:00.906Z,23.80
2018-01-12T12:18:29.900Z,23.80
2018-01-12T12:20:57.448Z,23.80
2018-01-12T12:23:26.200Z,23.80
2018-01-12T12:25:53.716Z,23.80
2018-01-12T12:28:22.028Z,23.80
2018-01-12T12:30:50.284Z,23.80
2018-01-12T12:33:17.779Z,23.70
2018-01-12T12:35:47.276Z,23.80
2018-01-12T12:38:14.769Z,23.70
2018-01-12T12:40:42.265Z,23.70
2018-01-12T12:43:09.777Z,23.70
2018-01-12T12:45:38.040Z,23.70
2018-01-12T12:48:05.553Z,23.70
2018-01-12T12:50:33.053Z,23.70
2018-01-12T12:53:00.578Z,23.70
2018-01-12T12:55:28.063Z,23.70
2018-01-12T12:57:55.579Z,23.70
2018-01-12T13:00:23.073Z,23.70
2018-01-12T13:02:50.556Z,23.70
2018-01-12T13:05:18.064Z,23.70
2018-01-12T13:07:45.556Z,23.70
2018-01-12T13:10:13.064Z,23.70
2018-01-12T13:12:40.552Z,23.70
2018-01-12T13:15:08.065Z,23.70
2018-01-12T13:17:36.341Z,23.70
2018-01-12T13:20:06.564Z,23.70
2018-01-12T13:22:34.060Z,23.70
2018-01-12T13:25:01.556Z,23.70
2018-01-12T13:27:29.068Z,23.70
2018-01-12T13:29:56.608Z,23.70
2018-01-12T13:32:25.848Z,23.70
2018-01-12T13:34:53.341Z,23.70
2018-01-12T13:37:21.625Z,23.70
2018-01-12T13:39:50.080Z,23.70
2018-01-12T13:42:17.592Z,23.70
2018-01-12T13:44:45.081Z,23.60
2018-01-12T13:47:14.085Z,23.60
2018-01-12T13:49:41.596Z,23.60
2018-01-12T13:52:09.138Z,23.60
2018-01-12T13:54:36.649Z,23.60
2018-01-12T13:57:04.914Z,23.60
2018-01-12T13:59:32.465Z,23.60
2018-01-12T14:01:59.969Z,23.60
2018-01-12T14:04:28.240Z,23.60
2018-01-12T14:06:56.520Z,23.60
2018-01-12T14:09:24.008Z,23.60
2018-01-12T14:11:52.484Z,23.60
2018-01-12T14:14:19.972Z,23.60
2018-01-12T14:16:48.987Z,23.60
2018-01-12T14:19:17.257Z,23.60
2018-01-12T14:21:44.768Z,23.60
2018-01-12T14:24:12.256Z,23.60
2018-01-12T14:26:40.541Z,23.60
2018-01-12T14:29:09.568Z,23.60
2018-01-12T14:31:37.087Z,23.60
2018-01-12T14:34:04.603Z,23.60
2018-01-12T14:36:32.097Z,23.60
2018-01-12T14:39:00.385Z,23.60
2018-01-12T14:41:28.644Z,23.60
2018-01-12T14:43:56.934Z,23.60
2018-01-12T14:46:24.434Z,23.50
2018-01-12T14:48:51.936Z,23.50
2018-01-12T14:51:21.163Z,23.60
2018-01-12T14:53:49.435Z,23.50
2018-01-12T14:56:17.717Z,23.50
2018-01-12T14:58:45.976Z,23.60
2018-01-12T15:01:14.252Z,23.50
2018-01-12T15:03:42.530Z,23.50
2018-01-12T15:06:10.807Z,23.50
2018-01-12T15:08:39.077Z,23.50
2018-01-12T15:11:07.351Z,23.50
2018-01-12T15:13:35.612Z,23.50
2018-01-12T15:16:03.120Z,23.50
2018-01-12T15:18:30.638Z,23.50
2018-01-12T15:20:58.897Z,23.50
2018-01-12T15:23:27.186Z,23.50
2018-01-12T15:25:55.440Z,23.50
2018-01-12T15:28:23.729Z,23.50
2018-01-12T15:30:51.998Z,23.50
2018-01-12T15:33:21.028Z,23.50
2018-01-12T15:35:48.517Z,23.40
2018-01-12T15:38:16.026Z,23.50
2018-01-12T15:40:44.308Z,23.50
2018-01-12T15:43:12.577Z,23.50
2018-01-12T15:45:40.869Z,23.50
2018-01-12T15:48:08.364Z,23.50
2018-01-12T15:50:35.876Z,23.50
2018-01-12T15:53:03.364Z,23.50
2018-01-12T15:55:30.864Z,23.50
2018-01-12T15:57:58.390Z,23.50
2018-01-12T16:00:25.888Z,23.50
2018-01-12T16:02:54.180Z,23.40
2018-01-12T16:05:21.741Z,23.40
2018-01-12T16:07:51.221Z,23.40
2018-01-12T16:10:19.507Z,23.40
2018-01-12T16:12:47.785Z,23.40
2018-01-12T16:15:15.280Z,23.40
2018-01-12T16:17:42.772Z,23.40
2018-01-12T16:20:10.284Z,23.40
2018-01-12T16:22:37.772Z,23.40
2018-01-12T16:25:05.290Z,23.40
2018-01-12T16:27:32.785Z,23.40
2018-01-12T16:30:02.253Z,23.40
2018-01-12T16:32:29.745Z,23.40
2018-01-12T16:34:57.259Z,23.40
2018-01-12T16:37:24.759Z,23.40
2018-01-12T16:39:52.249Z,23.40
2018-01-12T16:42:20.532Z,23.40
2018-01-12T16:44:48.788Z,23.30
2018-01-12T16:47:18.264Z,23.30
2018-01-12T16:49:45.772Z,23.30
2018-01-12T16:52:13.289Z,23.30
2018-01-12T16:54:43.237Z,23.30
2018-01-12T16:57:11.511Z,23.30
2018-01-12T16:59:39.774Z,23.30
2018-01-12T17:02:08.033Z,23.30
2018-01-12T17:04:36.318Z,23.30
2018-01-12T17:07:03.809Z,23.30
2018-01-12T17:09:31.320Z,23.30
2018-01-12T17:12:00.316Z,23.30
2018-01-12T17:14:27.831Z,23.30
2018-01-12T17:16:55.321Z,23.30
2018-01-12T17:19:24.792Z,23.30
2018-01-12T17:21:52.280Z,23.30
2018-01-12T17:24:21.291Z,23.30
2018-01-12T17:26:49.568Z,23.30
2018-01-12T17:29:17.862Z,23.30
2018-01-12T17:31:47.084Z,23.30
2018-01-12T17:34:14.572Z,23.20
2018-01-12T17:36:42.849Z,23.30
2018-01-12T17:39:11.108Z,23.20
2018-01-12T17:41:38.621Z,23.30
2018-01-12T17:44:06.111Z,23.20
2018-01-12T17:46:33.598Z,23.20
2018-01-12T17:49:01.872Z,23.20
2018-01-12T17:51:29.368Z,23.20
2018-01-12T17:53:56.879Z,23.20
2018-01-12T17:56:24.373Z,23.20
2018-01-12T17:58:52.650Z,23.20
2018-01-12T18:01:20.912Z,23.20
2018-01-12T18:03:49.197Z,23.20
2018-01-12T18:06:17.457Z,23.20
2018-01-12T18:08:46.905Z,23.20
2018-01-12T18:11:14.392Z,23.20
2018-01-12T18:13:41.881Z,23.20
2018-01-12T18:16:12.113Z,23.20
2018-01-12T18:18:39.604Z,23.20
2018-01-12T18:21:07.123Z,23.20
2018-01-12T18:23:35.386Z,23.20
2018-01-12T18:26:03.676Z,23.20
2018-01-12T18:28:31.936Z,23.20
2018-01-12T18:31:00.230Z,23.20
2018-01-12T18:33:27.716Z,23.20
2018-01-12T18:35:55.204Z,23.20
2018-01-12T18:38:24.234Z,23.20
2018-01-12T18:40:52.748Z,23.20
2018-01-12T18:43:20.266Z,23.20
2018-01-12T18:45:48.524Z,23.20
2018-01-12T18:48:16.034Z,23.20
2018-01-12T18:50:43.581Z,23.20
2018-01-12T18:53:11.098Z,23.20
2018-01-12T18:55:39.360Z,23.20
2018-01-12T18:58:06.853Z,23.20
2018-01-12T19:00:34.372Z,23.20
2018-01-12T19:03:01.865Z,23.20
2018-01-12T19:05:30.153Z,23.20
2018-01-12T19:07:57.648Z,23.10
2018-01-12T19:10:25.161Z,23.20
2018-01-12T19:12:52.660Z,23.20
2018-01-12T19:15:22.226Z,23.20
2018-01-12T19:17:49.741Z,23.20
2018-01-12T19:20:17.272Z,23.20
2018-01-12T19:22:44.778Z,23.20
2018-01-12T19:25:13.974Z,23.20
2018-01-12T19:27:42.252Z,23.20
2018-01-12T19:30:10.516Z,23.20
2018-01-12T19:32:38.794Z,23.20
2018-01-12T19:35:07.057Z,23.10
2018-01-12T19:37:35.345Z,23.20
2018-01-12T19:40:03.666Z,23.10
2018-01-12T19:42:31.907Z,23.10
2018-01-12T19:44:59.405Z,23.10
2018-01-12T19:47:26.903Z,23.10
2018-01-12T19:49:55.180Z,23.10
2018-01-12T19:52:25.025Z,23.10
2018-01-12T19:54:52.831Z,23.10
2018-01-12T19:57:21.996Z,23.10
2018-01-12T19:59:49.782Z,23.10
2018-01-12T20:02:18.535Z,23.10
2018-01-12T20:04:46.604Z,23.10
2018-01-12T20:07:14.470Z,23.10
2018-01-12T20:09:43.360Z,23.10
2018-01-12T20:12:11.327Z,23.10
2018-01-12T20:14:40.114Z,23.10
2018-01-12T20:17:07.979Z,23.10
2018-01-12T20:19:35.781Z,23.10
2018-01-12T20:22:05.144Z,23.10
2018-01-12T20:24:33.875Z,23.10
2018-01-12T20:27:01.795Z,23.10
2018-01-12T20:29:29.662Z,23.10
2018-01-12T20:31:59.019Z,23.10
2018-01-12T20:34:27.542Z,23.10
2018-01-12T20:36:56.431Z,23.10
2018-01-12T20:39:25.203Z,23.10
2018-01-12T20:41:52.904Z,23.20
2018-01-12T20:44:20.640Z,23.20
2018-01-12T20:46:48.173Z,23.20
2018-01-12T20:49:16.448Z,23.20
2018-01-12T20:51:44.720Z,23.20
2018-01-12T20:54:12.975Z,23.20
2018-01-12T20:56:40.488Z,23.20
2018-01-12T20:59:07.976Z,23.20
2018-01-12T21:01:36.265Z,23.20
2018-01-12T21:04:04.692Z,23.20
2018-01-12T21:06:32.189Z,23.30
2018-01-12T21:09:01.652Z,23.30
2018-01-12T21:11:29.144Z,23.30
2018-01-12T21:13:56.665Z,23.30
2018-01-12T21:16:24.156Z,23.30
2018-01-12T21:18:51.669Z,23.30
2018-01-12T21:21:19.167Z,23.30
2018-01-12T21:23:46.661Z,23.30
2018-01-12T21:26:14.936Z,23.30
2018-01-12T21:28:43.188Z,23.30
2018-01-12T21:31:11.476Z,23.30
2018-01-12T21:33:38.964Z,23.30
2018-01-12T21:36:06.477Z,23.30
2018-01-12T21:38:34.732Z,23.40
2018-01-12T21:41:02.248Z,23.30
2018-01-12T21:43:29.769Z,23.40
2018-01-12T21:45:59.712Z,23.30
2018-01-12T21:48:27.968Z,23.40
2018-01-12T21:50:55.489Z,23.40
2018-01-12T21:53:22.988Z,23.40
2018-01-12T21:55:51.268Z,23.40
2018-01-12T21:58:19.529Z,23.40
2018-01-12T22:00:48.994Z,23.40
2018-01-12T22:03:16.484Z,23.40
2018-01-12T22:05:43.972Z,23.40
2018-01-12T22:08:11.482Z,23.40
2018-01-12T22:10:38.981Z,23.40
2018-01-12T22:13:07.262Z,23.40
2018-01-12T22:15:34.752Z,23.40
2018-01-12T22:18:02.264Z,23.40
2018-01-12T22:20:30.543Z,23.50
2018-01-12T22:22:58.815Z,23.50
2018-01-12T22:25:27.073Z,23.50
2018-01-12T22:27:55.332Z,23.50
2018-01-12T22:30:24.353Z,23.50
2018-01-12T22:32:52.608Z,23.50
2018-01-12T22:35:20.119Z,23.50
2018-01-12T22:37:47.604Z,23.50
2018-01-12T22:40:15.097Z,23.50
2018-01-12T22:42:43.384Z,23.50
2018-01-12T22:45:10.880Z,23.50
2018-01-12T22:47:38.396Z,23.50
2018-01-12T22:50:05.884Z,23.60
2018-01-12T22:52:33.395Z,23.50
2018-01-12T22:55:01.665Z,23.60
2018-01-12T22:57:29.920Z,23.60
2018-01-12T22:59:58.212Z,23.60
2018-01-12T23:02:25.700Z,23.60
2018-01-12T23:04:53.213Z,23.60
2018-01-12T23:07:21.474Z,23.60
2018-01-12T23:09:48.960Z,23.60
2018-01-12T23:12:17.240Z,23.60
2018-01-12T23:14:45.496Z,23.60
2018-01-12T23:17:13.772Z,23.70
2018-01-12T23:19:41.311Z,23.60
2018-01-12T23:22:09.232Z,23.70
2018-01-12T23:24:36.725Z,23.70
2018-01-12T23:27:04.217Z,23.70
2018-01-12T23:29:32.514Z,23.70
2018-01-12T23:32:00.772Z,23.70
2018-01-12T23:34:29.053Z,23.70
2018-01-12T23:36:57.304Z,23.70
2018-01-12T23:39:25.589Z,23.80
2018-01-12T23:41:53.076Z,23.70
2018-01-12T23:44:20.580Z,23.80
2018-01-12T23:46:48.092Z,23.80
2018-01-12T23:49:15.581Z,23.80
2018-01-12T23:51:43.097Z,23.80
2018-01-12T23:54:10.619Z,23.80
2018-01-12T23:56:38.882Z,23.90
2018-01-12T23:59:06.422Z,23.80
